Lompico, California
Current Conditions -  °F | °C
As of 8:53 PM on Tuesday 25 Nov 2014 (Local Time) from KWVI Reporting Station
Clear Clear  
Wind Chill: 55°   Ceiling: Unl
Heat Index: 55°   Visibility: 10mi
Dew Point: 45°   Wind: 3mph
Humidity: 69%   Direction: 300°WNW
Pressure: 30.34"   Gusts: NA
Location:  37.0802°N, 122.052°W
Report Text: KWVI 260453Z AUTO 30003KT 10SM CLR 13/07 A3034 RMK AO2 SLP273 T01280072
Loading
Personal Weather Stations






























Interactive Weather Map New forecast layout! Learn more

10-Day Weather Forecast

Advertisements
Track Severe Weather on mobile